Time;durP1;ratioP1;P1;durP2;ratioP2;P2;SDS_P1;SDS_P2;PMS_P1;PMS_P2;Temp;Humidity;BMP_temperature;BMP_pressure;BME280_temperature;BME280_humidity;BME280_pressure;Samples;Min_cycle;Max_cycle;Signal;HPM_P1;HPM_P2
2023/09/30 00:01:29;;;;;;;;;;;;;;;28.91;41.44;95103.00;4988567;28;7235;-62
2023/09/30 00:03:56;;;;;;;;;;;;;;;28.92;41.30;95099.72;5009604;28;9462;-62
2023/09/30 00:06:22;;;;;;;;;;;;;;;28.89;41.99;95106.28;5007468;28;6995;-62
2023/09/30 00:08:51;;;;;;;;;;;;;;;28.89;41.34;95106.28;4992417;28;7089;-62
2023/09/30 00:11:18;;;;;;;;;;;;;;;28.89;42.32;95097.97;4996925;28;7284;-62
2023/09/30 00:14:11;;;;;;;;;;;;;;;28.91;41.71;95105.75;5005316;28;7057;-61
2023/09/30 00:16:39;;;;;;;;;;;;;;;28.89;41.17;95106.28;4993491;28;7244;-62
2023/09/30 00:19:33;;;;;;;;;;;;;;;28.89;41.94;95108.31;5003458;28;7202;-62
2023/09/30 00:22:29;;;;;;;;;;;;;;;28.89;41.38;95108.31;5027972;28;7901;-61
2023/09/30 00:25:04;;;;;;;;;;;;;;;28.88;41.43;95109.59;4953811;28;7426;-62
2023/09/30 00:28:12;;;;;;;;;;;;;;;28.88;41.37;95115.84;4937752;28;7229;-62
2023/09/30 00:30:52;;;;;;;;;;;;;;;28.88;41.23;95121.38;4895195;29;7001;-62
2023/09/30 00:33:20;;;;;;;;;;;;;;;28.86;40.78;95123.91;4903999;29;9413;-55
2023/09/30 00:36:08;;;;;;;;;;;;;;;28.87;40.89;95119.13;4899078;29;7289;-55
2023/09/30 00:38:54;;;;;;;;;;;;;;;28.84;40.97;95109.84;4882538;29;9763;-55
2023/09/30 00:41:29;;;;;;;;;;;;;;;28.85;41.75;95108.59;4881160;29;7243;-55
2023/09/30 00:44:03;;;;;;;;;;;;;;;28.84;41.32;95107.06;4878152;29;7230;-55
2023/09/30 00:46:32;;;;;;;;;;;;;;;28.84;41.89;95112.59;4903145;29;7162;-55
2023/09/30 00:49:10;;;;;;;;;;;;;;;28.83;41.88;95110.38;4910998;29;8656;-55
2023/09/30 00:51:37;;;;;;;;;;;;;;;28.83;41.88;95113.88;4873192;29;7326;-55
2023/09/30 00:54:28;;;;;;;;;;;;;;;28.84;41.32;95114.66;4896148;29;6974;-56
2023/09/30 00:57:03;;;;;;;;;;;;;;;28.81;40.82;95097.03;4896318;29;7220;-55
2023/09/30 00:59:46;;;;;;;;;;;;;;;28.81;41.46;95099.81;4911068;29;8935;-56
2023/09/30 01:02:24;;;;;;;;;;;;;;;28.81;40.90;95094.28;5040920;28;9101;-56
2023/09/30 01:05:01;;;;;;;;;;;;;;;28.81;41.41;95091.50;5072029;28;7217;-55
2023/09/30 01:07:38;;;;;;;;;;;;;;;28.81;41.41;95082.44;5053852;28;7370;-55
2023/09/30 01:10:38;;;;;;;;;;;;;;;28.82;41.51;95081.91;5056029;28;9418;-55
2023/09/30 01:13:05;;;;;;;;;;;;;;;28.82;41.51;95070.09;5077168;28;7235;-55
2023/09/30 01:15:38;;;;;;;;;;;;;;;28.79;41.96;95076.69;5063920;28;7212;-55
2023/09/30 01:18:05;;;;;;;;;;;;;;;28.80;41.37;95070.63;5041009;28;9427;-55
2023/09/30 01:20:31;;;;;;;;;;;;;;;28.79;41.97;95077.44;5082414;28;7002;-55
2023/09/30 01:23:14;;;;;;;;;;;;;;;28.80;41.05;95069.84;5060928;28;9496;-55
2023/09/30 01:25:52;;;;;;;;;;;;;;;28.78;41.22;95059.31;5066585;28;7039;-55
2023/09/30 01:28:36;;;;;;;;;;;;;;;28.79;41.62;95063.59;5063067;28;8074;-55
2023/09/30 01:31:05;;;;;;;;;;;;;;;28.79;41.21;95060.06;5050168;28;7967;-56
2023/09/30 01:33:32;;;;;;;;;;;;;;;28.76;41.86;95052.78;5081118;28;8756;-55
2023/09/30 01:35:59;;;;;;;;;;;;;;;28.75;41.47;95040.94;5061638;28;9419;-55
2023/09/30 01:38:26;;;;;;;;;;;;;;;28.74;40.94;95039.47;5066079;28;7377;-55
2023/09/30 01:40:54;;;;;;;;;;;;;;;28.75;41.73;95048.53;5057217;28;6986;-55
2023/09/30 01:43:21;;;;;;;;;;;;;;;28.72;41.95;95052.31;5073991;28;8185;-62
2023/09/30 01:45:47;;;;;;;;;;;;;;;28.72;41.56;95060.63;5088530;28;9260;-61
2023/09/30 01:48:14;;;;;;;;;;;;;;;28.73;41.51;95060.09;5070314;28;9195;-62
2023/09/30 01:51:13;;;;;;;;;;;;;;;28.73;41.69;95065.63;5057908;28;9000;-62
2023/09/30 01:54:08;;;;;;;;;;;;;;;28.70;40.81;95055.59;5014190;28;7373;-62
2023/09/30 01:56:49;;;;;;;;;;;;;;;28.71;41.17;95051.56;4953877;28;6936;-61
2023/09/30 01:59:49;;;;;;;;;;;;;;;28.70;41.94;95046.53;4935142;28;9045;-61
2023/09/30 02:02:26;;;;;;;;;;;;;;;28.73;42.08;95048.28;4883153;29;6982;-61
2023/09/30 02:05:08;;;;;;;;;;;;;;;28.70;41.64;95035.47;4880836;29;7001;-61
2023/09/30 02:07:50;;;;;;;;;;;;;;;28.69;41.19;95036.72;4880295;29;8748;-62
2023/09/30 02:10:26;;;;;;;;;;;;;;;28.70;41.61;95038.25;4895543;29;9484;-61
2023/09/30 02:13:06;;;;;;;;;;;;;;;28.65;41.28;95025.94;4876261;29;6978;-61
2023/09/30 02:16:03;;;;;;;;;;;;;;;28.69;40.90;95034.72;4892357;29;6983;-61
2023/09/30 02:18:50;;;;;;;;;;;;;;;28.70;42.05;95035.47;4778159;30;7208;-61
2023/09/30 02:21:16;;;;;;;;;;;;;;;28.68;41.14;95035.22;4770514;30;7385;-62
2023/09/30 02:24:02;;;;;;;;;;;;;;;28.70;41.58;95032.69;4776638;30;9562;-62
2023/09/30 02:26:45;;;;;;;;;;;;;;;28.68;41.69;95024.91;4768794;30;8853;-61
2023/09/30 02:29:23;;;;;;;;;;;;;;;28.68;41.60;95038.75;4774724;29;7286;-61
2023/09/30 02:32:02;;;;;;;;;;;;;;;28.69;41.59;95031.19;4816309;29;7860;-61
2023/09/30 02:34:30;;;;;;;;;;;;;;;28.66;41.04;95027.47;4892256;29;9138;-61
2023/09/30 02:36:59;;;;;;;;;;;;;;;28.68;41.60;95032.47;4892698;29;7294;-61
2023/09/30 02:39:43;;;;;;;;;;;;;;;28.66;41.29;95030.22;4936999;29;8725;-61
2023/09/30 02:42:12;;;;;;;;;;;;;;;28.65;41.56;95025.94;4952327;28;7176;-61
2023/09/30 02:44:40;;;;;;;;;;;;;;;28.64;41.77;95030.00;4952930;29;7109;-62
2023/09/30 02:47:06;;;;;;;;;;;;;;;28.65;41.67;95028.72;4934804;29;9157;-61
2023/09/30 02:49:35;;;;;;;;;;;;;;;28.63;41.90;95039.53;4936611;29;8159;-61
2023/09/30 02:52:10;;;;;;;;;;;;;;;28.65;41.44;95045.31;4937165;29;7232;-61
2023/09/30 02:54:51;;;;;;;;;;;;;;;28.66;41.62;95048.84;4969602;28;7753;-56
2023/09/30 02:57:24;;;;;;;;;;;;;;;28.64;41.17;95057.66;5084622;28;7204;-56
2023/09/30 03:00:33;;;;;;;;;;;;;;;28.65;40.92;95039.78;5076051;28;7214;-56
2023/09/30 03:03:16;;;;;;;;;;;;;;;28.64;41.58;95041.06;5067993;28;7219;-56
2023/09/30 03:05:45;;;;;;;;;;;;;;;28.60;41.87;95039.84;5058718;28;7662;-56
2023/09/30 03:08:13;;;;;;;;;;;;;;;28.62;41.64;95051.91;5051812;28;9204;-56
2023/09/30 03:10:52;;;;;;;;;;;;;;;28.63;41.00;95047.84;5055696;28;8814;-56
2023/09/30 03:13:37;;;;;;;;;;;;;;;28.62;41.15;95054.66;5048002;28;6990;-56
2023/09/30 03:16:05;;;;;;;;;;;;;;;28.62;41.87;95051.91;5049241;28;7026;-56
2023/09/30 03:18:32;;;;;;;;;;;;;;;28.62;42.01;95051.91;5088791;28;7119;-56
2023/09/30 03:21:01;;;;;;;;;;;;;;;28.61;41.34;95055.16;5057418;28;8766;-56
2023/09/30 03:23:35;;;;;;;;;;;;;;;28.61;41.03;95053.16;5049336;28;6996;-57
2023/09/30 03:26:21;;;;;;;;;;;;;;;28.62;41.39;95053.91;5060345;28;7019;-57
2023/09/30 03:28:50;;;;;;;;;;;;;;;28.62;41.88;95053.91;5041379;28;7157;-56
2023/09/30 03:31:36;;;;;;;;;;;;;;;28.61;41.26;95044.09;5075006;28;7253;-56
2023/09/30 03:34:13;;;;;;;;;;;;;;;28.62;41.45;95037.31;5075873;28;7368;-56
2023/09/30 03:36:50;;;;;;;;;;;;;;;28.60;41.66;95045.38;5045281;28;7316;-56
2023/09/30 03:39:36;;;;;;;;;;;;;;;28.61;41.50;95064.22;5076061;28;7337;-56
2023/09/30 03:42:03;;;;;;;;;;;;;;;28.58;41.88;95061.75;5043345;28;9367;-56
2023/09/30 03:44:31;;;;;;;;;;;;;;;28.59;42.04;95063.22;5066809;28;9065;-56
2023/09/30 03:47:00;;;;;;;;;;;;;;;28.57;41.63;95061.00;5041882;28;7069;-57
2023/09/30 03:49:28;;;;;;;;;;;;;;;28.55;41.58;95066.25;5054393;28;7249;-57
2023/09/30 03:52:32;;;;;;;;;;;;;;;28.57;41.76;95074.81;5079117;28;7444;-57
2023/09/30 03:55:04;;;;;;;;;;;;;;;28.55;41.97;95071.78;5042250;28;6990;-57
2023/09/30 03:57:34;;;;;;;;;;;;;;;28.57;41.13;95063.75;5068609;28;7221;-56
2023/09/30 04:00:06;;;;;;;;;;;;;;;28.56;41.38;95064.97;5048759;28;7145;-56
2023/09/30 04:02:32;;;;;;;;;;;;;;;28.56;41.08;95067.75;5068353;28;7885;-56
2023/09/30 04:05:03;;;;;;;;;;;;;;;28.57;41.49;95069.28;5050555;28;7151;-61
2023/09/30 04:07:30;;;;;;;;;;;;;;;28.57;41.33;95068.50;5069965;28;8802;-62
2023/09/30 04:10:01;;;;;;;;;;;;;;;28.53;41.68;95068.78;5056237;28;7172;-62
2023/09/30 04:12:28;;;;;;;;;;;;;;;28.56;41.30;95061.47;5068407;28;7232;-62
2023/09/30 04:15:00;;;;;;;;;;;;;;;28.54;41.75;95064.00;5066150;28;9097;-60
2023/09/30 04:17:38;;;;;;;;;;;;;;;28.57;41.71;95061.00;5046301;28;7007;-61
2023/09/30 04:20:10;;;;;;;;;;;;;;;28.55;41.22;95049.66;5048880;28;7199;-61
2023/09/30 04:22:38;;;;;;;;;;;;;;;28.55;41.53;95049.66;5063077;28;9426;-61
2023/09/30 04:25:10;;;;;;;;;;;;;;;28.56;41.59;95050.41;5070585;28;7406;-61
2023/09/30 04:27:36;;;;;;;;;;;;;;;28.54;41.20;95047.38;5079514;28;7158;-61
2023/09/30 04:30:15;;;;;;;;;;;;;;;28.54;41.16;95039.84;5047883;28;9099;-61
2023/09/30 04:33:11;;;;;;;;;;;;;;;28.55;42.08;95033.03;5046018;28;10001;-61
2023/09/30 04:35:46;;;;;;;;;;;;;;;28.55;41.80;95030.28;5020193;28;7408;-61
2023/09/30 04:38:23;;;;;;;;;;;;;;;28.57;41.84;95018.69;5004392;28;8640;-61
2023/09/30 04:40:51;;;;;;;;;;;;;;;28.55;41.63;95026.75;5020362;28;8967;-61
2023/09/30 04:43:52;;;;;;;;;;;;;;;28.56;41.43;95028.28;5036141;28;7234;-61
2023/09/30 04:46:22;;;;;;;;;;;;;;;28.54;41.27;95026.00;4972398;28;7276;-61
2023/09/30 04:49:21;;;;;;;;;;;;;;;28.52;42.06;95036.84;4945714;28;7317;-61
2023/09/30 04:52:07;;;;;;;;;;;;;;;28.54;41.53;95042.59;4922911;29;9539;-61
2023/09/30 04:55:09;;;;;;;;;;;;;;;28.54;40.97;95045.38;4915652;29;8162;-61
2023/09/30 04:58:04;;;;;;;;;;;;;;;28.54;41.22;95052.91;4895753;29;7281;-60
2023/09/30 05:01:19;;;;;;;;;;;;;;;28.52;42.06;95041.63;4911927;29;9311;-61
2023/09/30 05:03:49;;;;;;;;;;;;;;;28.53;41.52;95046.66;4886731;29;7025;-61
2023/09/30 05:06:24;;;;;;;;;;;;;;;28.50;41.22;95036.59;4896480;29;8750;-61
2023/09/30 05:08:55;;;;;;;;;;;;;;;28.52;41.46;95042.38;4896360;29;8778;-61
2023/09/30 05:11:31;;;;;;;;;;;;;;;28.51;41.87;95035.34;4881255;29;7606;-61
2023/09/30 05:13:57;;;;;;;;;;;;;;;28.51;41.38;95043.66;4915803;29;7073;-60
2023/09/30 05:16:34;;;;;;;;;;;;;;;28.50;41.56;95047.66;4932067;29;9100;-61
2023/09/30 05:19:27;;;;;;;;;;;;;;;28.52;41.10;95049.91;4914066;29;7376;-60
2023/09/30 05:21:53;;;;;;;;;;;;;;;28.50;41.65;95055.22;4950230;28;7427;-62
2023/09/30 05:24:19;;;;;;;;;;;;;;;28.50;41.46;95053.22;4923404;29;7275;-61
2023/09/30 05:27:07;;;;;;;;;;;;;;;28.50;42.09;95063.53;4927643;28;8757;-61
2023/09/30 05:29:54;;;;;;;;;;;;;;;28.50;41.64;95063.53;4980579;28;6926;-60
2023/09/30 05:32:23;;;;;;;;;;;;;;;28.50;41.39;95069.06;4987618;28;7393;-61
2023/09/30 05:34:53;;;;;;;;;;;;;;;28.50;41.64;95067.03;4965824;28;8407;-60
2023/09/30 05:37:28;;;;;;;;;;;;;;;28.51;41.68;95057.50;4956402;28;6988;-62
2023/09/30 05:39:54;;;;;;;;;;;;;;;28.51;41.83;95062.25;4993016;28;7138;-61
2023/09/30 05:42:30;;;;;;;;;;;;;;;28.50;41.18;95069.06;5066924;28;9181;-61
2023/09/30 05:45:13;;;;;;;;;;;;;;;28.49;41.47;95073.84;5063686;28;7001;-61
2023/09/30 05:47:52;;;;;;;;;;;;;;;28.49;41.87;95075.88;5061987;28;9692;-62
2023/09/30 05:50:50;;;;;;;;;;;;;;;28.49;41.75;95081.41;5051371;28;9065;-61
2023/09/30 05:53:28;;;;;;;;;;;;;;;28.48;41.43;95093.72;5013311;28;7062;-62
2023/09/30 05:55:55;;;;;;;;;;;;;;;28.49;42.01;95095.25;4992707;28;9571;-61
2023/09/30 05:58:23;;;;;;;;;;;;;;;28.49;42.02;95087.69;5008739;28;9255;-61
2023/09/30 06:00:53;;;;;;;;;;;;;;;28.48;42.08;95091.72;4989601;28;7066;-62
2023/09/30 06:03:23;;;;;;;;;;;;;;;28.47;41.28;95097.78;4985717;28;7251;-62
2023/09/30 06:05:49;;;;;;;;;;;;;;;28.44;41.77;95099.53;5008144;28;7435;-61
2023/09/30 06:08:17;;;;;;;;;;;;;;;28.48;41.33;95093.72;4991339;28;9154;-61
2023/09/30 06:10:43;;;;;;;;;;;;;;;28.47;41.34;95095.72;4982418;28;7220;-61
2023/09/30 06:13:22;;;;;;;;;;;;;;;28.45;41.84;95094.78;5004558;28;7009;-61
2023/09/30 06:15:51;;;;;;;;;;;;;;;28.45;41.42;95089.97;5006038;28;8224;-62
2023/09/30 06:18:17;;;;;;;;;;;;;;;28.45;40.69;95092.72;5007756;28;9384;-61
2023/09/30 06:20:43;;;;;;;;;;;;;;;28.43;41.68;95102.84;5009023;28;8938;-61
2023/09/30 06:23:22;;;;;;;;;;;;;;;28.41;42.07;95103.31;5013013;28;9028;-62
2023/09/30 06:25:59;;;;;;;;;;;;;;;28.42;41.20;95106.84;5006602;28;7430;-61
2023/09/30 06:28:26;;;;;;;;;;;;;;;28.46;41.48;95112.84;4989401;28;7362;-62
2023/09/30 06:31:13;;;;;;;;;;;;;;;28.46;41.82;95115.63;5078700;28;8733;-62
2023/09/30 06:33:56;;;;;;;;;;;;;;;28.44;41.75;95118.91;5068486;28;7076;-61
2023/09/30 06:36:24;;;;;;;;;;;;;;;28.38;41.62;95117.44;5052691;28;9788;-61
2023/09/30 06:38:51;;;;;;;;;;;;;;;28.41;41.39;95127.47;5078911;28;8591;-61
2023/09/30 06:41:25;;;;;;;;;;;;;;;28.41;42.14;95133.00;5058936;28;7271;-61
2023/09/30 06:44:19;;;;;;;;;;;;;;;28.43;41.60;95136.78;5066016;28;9458;-61
2023/09/30 06:47:01;;;;;;;;;;;;;;;28.42;41.35;95135.28;5062215;28;7425;-61
2023/09/30 06:49:27;;;;;;;;;;;;;;;28.42;41.07;95137.28;5071101;28;9082;-61
2023/09/30 06:52:33;;;;;;;;;;;;;;;28.45;41.12;95137.00;5072786;28;8268;-61
2023/09/30 06:55:04;;;;;;;;;;;;;;;28.44;42.03;95132.75;5061331;28;7216;-61
2023/09/30 06:57:40;;;;;;;;;;;;;;;28.44;41.83;95143.81;5059525;28;7238;-61
2023/09/30 07:00:27;;;;;;;;;;;;;;;28.42;41.79;95153.91;5060547;28;6990;-61
2023/09/30 07:03:01;;;;;;;;;;;;;;;28.39;41.50;95139.06;5081497;28;6969;-61
2023/09/30 07:05:36;;;;;;;;;;;;;;;28.40;41.87;95139.81;5075111;28;7058;-61
2023/09/30 07:08:03;;;;;;;;;;;;;;;28.40;41.36;95154.41;5067695;28;7245;-61
2023/09/30 07:10:38;;;;;;;;;;;;;;;28.38;41.46;95143.84;5058393;28;7066;-61
2023/09/30 07:13:18;;;;;;;;;;;;;;;28.42;42.15;95146.34;5054900;28;7374;-60
2023/09/30 07:16:05;;;;;;;;;;;;;;;28.42;41.44;95142.81;5065102;28;7264;-61
2023/09/30 07:18:35;;;;;;;;;;;;;;;28.40;41.64;95146.13;5088323;28;7253;-61
2023/09/30 07:21:13;;;;;;;;;;;;;;;28.40;41.35;95137.81;5054690;28;9413;-61
2023/09/30 07:23:51;;;;;;;;;;;;;;;28.41;41.53;95138.53;5069652;28;7431;-61
2023/09/30 07:26:27;;;;;;;;;;;;;;;28.39;41.41;95144.59;5080862;28;7502;-60
2023/09/30 07:28:58;;;;;;;;;;;;;;;28.43;41.32;95147.09;5071701;28;9223;-61
2023/09/30 07:31:26;;;;;;;;;;;;;;;28.43;41.30;95142.31;5056990;28;8639;-62
2023/09/30 07:34:05;;;;;;;;;;;;;;;28.41;41.82;95144.84;5088996;28;7249;-62
2023/09/30 07:36:37;;;;;;;;;;;;;;;28.43;41.47;95147.84;5077494;28;7303;-62
2023/09/30 07:39:05;;;;;;;;;;;;;;;28.44;41.25;95154.13;5058686;28;7337;-62
2023/09/30 07:41:41;;;;;;;;;;;;;;;28.44;41.23;95154.88;5051224;28;7002;-62
2023/09/30 07:44:09;;;;;;;;;;;;;;;28.45;41.20;95159.16;5073005;28;9105;-62
2023/09/30 07:46:53;;;;;;;;;;;;;;;28.43;41.20;95155.41;5070450;28;7234;-63
2023/09/30 07:49:19;;;;;;;;;;;;;;;28.43;41.17;95160.94;5063646;28;7633;-63
2023/09/30 07:51:50;;;;;;;;;;;;;;;28.44;41.43;95168.72;5057484;28;7616;-63
2023/09/30 07:54:24;;;;;;;;;;;;;;;28.44;40.90;95165.97;5068241;28;8972;-61
2023/09/30 07:56:50;;;;;;;;;;;;;;;28.43;40.93;95166.47;5047111;28;7480;-61
2023/09/30 07:59:21;;;;;;;;;;;;;;;28.43;41.84;95167.22;5045783;28;8422;-62
2023/09/30 08:01:48;;;;;;;;;;;;;;;28.42;40.86;95178.81;5053496;28;7464;-62
2023/09/30 08:04:14;;;;;;;;;;;;;;;28.41;40.98;95177.28;5064130;28;7253;-62
2023/09/30 08:06:42;;;;;;;;;;;;;;;28.41;41.09;95177.28;5079643;28;7005;-62
2023/09/30 08:09:11;;;;;;;;;;;;;;;28.44;41.27;95177.03;5039082;28;8779;-62
2023/09/30 08:11:44;;;;;;;;;;;;;;;28.38;40.61;95165.25;5055025;28;9066;-62
2023/09/30 08:14:12;;;;;;;;;;;;;;;28.41;41.29;95166.97;5054990;28;8205;-63
2023/09/30 08:16:42;;;;;;;;;;;;;;;28.46;41.48;95151.59;5050219;28;6981;-62
2023/09/30 08:19:31;;;;;;;;;;;;;;;28.47;41.09;95148.31;5071994;28;9214;-62
2023/09/30 08:21:59;;;;;;;;;;;;;;;28.49;40.47;95154.13;5067403;28;8286;-63
2023/09/30 08:25:06;;;;;;;;;;;;;;;28.50;40.73;95158.38;5064846;28;6994;-62
2023/09/30 08:27:40;;;;;;;;;;;;;;;28.52;40.79;95155.09;5065692;28;7222;-63
2023/09/30 08:30:06;;;;;;;;;;;;;;;28.49;40.59;95156.13;5066165;28;9768;-62
2023/09/30 08:32:41;;;;;;;;;;;;;;;28.48;40.38;95147.06;5063351;28;8781;-61
2023/09/30 08:35:21;;;;;;;;;;;;;;;28.51;40.34;95143.28;5053957;28;8745;-61
2023/09/30 08:38:07;;;;;;;;;;;;;;;28.52;40.54;95144.78;5046865;28;7390;-62
2023/09/30 08:40:33;;;;;;;;;;;;;;;28.54;39.99;95147.00;5055778;28;7472;-61
2023/09/30 08:43:13;;;;;;;;;;;;;;;28.53;40.15;95157.34;5062819;28;9031;-60
2023/09/30 08:45:53;;;;;;;;;;;;;;;28.54;40.38;95169.16;5048517;28;7209;-60
2023/09/30 08:48:23;;;;;;;;;;;;;;;28.51;40.32;95173.72;5065004;28;8099;-60
2023/09/30 08:50:56;;;;;;;;;;;;;;;28.49;39.89;95167.94;5056377;28;8755;-60
2023/09/30 08:53:23;;;;;;;;;;;;;;;28.49;40.39;95162.41;5083282;28;9168;-60
2023/09/30 08:55:56;;;;;;;;;;;;;;;28.53;40.11;95151.06;5077359;28;8742;-60
2023/09/30 08:58:33;;;;;;;;;;;;;;;28.53;40.80;95132.44;5056251;28;8301;-60
2023/09/30 09:01:01;;;;;;;;;;;;;;;28.52;40.62;95124.63;5068918;28;7085;-61
2023/09/30 09:03:31;;;;;;;;;;;;;;;28.48;40.82;95116.63;5038434;28;7878;-60
2023/09/30 09:05:57;;;;;;;;;;;;;;;28.45;40.66;95123.16;5074290;28;8721;-60
2023/09/30 09:08:26;;;;;;;;;;;;;;;28.49;40.73;95134.00;5039099;28;8722;-60
2023/09/30 09:10:59;;;;;;;;;;;;;;;28.52;41.17;95136.47;5067367;28;8230;-61
2023/09/30 09:13:26;;;;;;;;;;;;;;;28.53;40.18;95135.22;5071155;28;7136;-60
2023/09/30 09:16:11;;;;;;;;;;;;;;;28.59;40.87;95135.19;5068304;28;7951;-60
2023/09/30 09:18:46;;;;;;;;;;;;;;;28.61;40.21;95135.44;5058459;28;8829;-61
2023/09/30 09:21:53;;;;;;;;;;;;;;;28.65;40.80;95142.19;5089901;28;6915;-61
2023/09/30 09:24:42;;;;;;;;;;;;;;;28.66;41.02;95132.66;5019110;28;9210;-61
2023/09/30 09:27:14;;;;;;;;;;;;;;;28.68;40.34;95127.34;5026801;28;7256;-60
2023/09/30 09:29:42;;;;;;;;;;;;;;;28.66;39.93;95132.66;5015029;28;8876;-60
2023/09/30 09:32:17;;;;;;;;;;;;;;;28.66;39.98;95140.94;5022793;28;7072;-60
2023/09/30 09:34:45;;;;;;;;;;;;;;;28.67;40.82;95138.91;5026605;28;7419;-60
2023/09/30 09:37:15;;;;;;;;;;;;;;;28.65;40.56;95139.44;5010274;28;9094;-60
2023/09/30 09:40:03;;;;;;;;;;;;;;;28.67;39.85;95138.91;5017964;28;6984;-60
2023/09/30 09:42:34;;;;;;;;;;;;;;;28.64;40.17;95140.72;5011404;28;7222;-60
2023/09/30 09:45:09;;;;;;;;;;;;;;;28.63;40.37;95144.72;5020558;28;7262;-61
2023/09/30 09:47:38;;;;;;;;;;;;;;;28.63;40.27;95153.03;5025798;28;7231;-60
2023/09/30 09:50:10;;;;;;;;;;;;;;;28.58;40.06;95148.28;5004905;28;8168;-61
2023/09/30 09:52:41;;;;;;;;;;;;;;;28.58;39.98;95151.03;5016836;28;7145;-61
2023/09/30 09:55:38;;;;;;;;;;;;;;;28.57;40.72;95151.53;5016849;28;8437;-61
2023/09/30 09:58:08;;;;;;;;;;;;;;;28.55;40.24;95157.59;5003027;28;7199;-61
2023/09/30 10:00:51;;;;;;;;;;;;;;;28.55;40.66;95162.38;5041159;28;7409;-60
2023/09/30 10:03:17;;;;;;;;;;;;;;;28.55;39.98;95154.84;5064157;28;8812;-61
2023/09/30 10:05:46;;;;;;;;;;;;;;;28.54;40.56;95147.78;5062206;28;7659;-60
2023/09/30 10:08:21;;;;;;;;;;;;;;;28.54;40.41;95147.00;5053772;28;7486;-60
2023/09/30 10:10:58;;;;;;;;;;;;;;;28.54;39.84;95147.78;5071292;28;7227;-60
2023/09/30 10:13:56;;;;;;;;;;;;;;;28.50;39.42;95147.31;5073924;28;7034;-60
2023/09/30 10:16:58;;;;;;;;;;;;;;;28.53;39.14;95151.81;5080091;28;7365;-61
2023/09/30 10:19:24;;;;;;;;;;;;;;;28.56;38.97;95155.59;5010528;28;7856;-60
2023/09/30 10:22:27;;;;;;;;;;;;;;;28.56;39.22;95153.53;5007548;28;7358;-60
2023/09/30 10:25:00;;;;;;;;;;;;;;;28.55;39.12;95157.59;5004906;28;7253;-60
2023/09/30 10:27:34;;;;;;;;;;;;;;;28.57;38.46;95157.06;5007528;28;7223;-60
2023/09/30 10:30:35;;;;;;;;;;;;;;;28.56;38.55;95152.81;5006352;28;7193;-60
2023/09/30 10:33:29;;;;;;;;;;;;;;;28.55;38.64;95140.22;4950167;28;9691;-60
2023/09/30 10:36:04;;;;;;;;;;;;;;;28.54;39.03;95133.94;4944575;29;8762;-60
2023/09/30 10:38:34;;;;;;;;;;;;;;;28.55;38.52;95127.16;4937381;28;7424;-60
2023/09/30 10:41:10;;;;;;;;;;;;;;;28.57;39.32;95129.41;4960832;28;9674;-61
2023/09/30 10:43:55;;;;;;;;;;;;;;;28.59;39.19;95101.97;4958044;28;9318;-61
2023/09/30 10:47:00;;;;;;;;;;;;;;;28.61;40.14;95100.22;4959733;28;9299;-61
2023/09/30 10:49:28;;;;;;;;;;;;;;;28.63;40.56;95100.44;4932585;29;7449;-61
2023/09/30 10:52:04;;;;;;;;;;;;;;;28.59;40.11;95099.97;4945413;29;7012;-60
2023/09/30 10:55:09;;;;;;;;;;;;;;;28.61;39.82;95094.66;4949908;28;8837;-60
2023/09/30 10:57:50;;;;;;;;;;;;;;;28.63;39.79;95100.44;4929108;29;7278;-60
2023/09/30 11:00:33;;;;;;;;;;;;;;;28.63;40.28;95094.16;4930210;29;9236;-60
2023/09/30 11:03:00;;;;;;;;;;;;;;;28.64;39.86;95088.13;4941338;29;9494;-55
2023/09/30 11:05:30;;;;;;;;;;;;;;;28.66;40.13;95093.88;4925561;29;7210;-55
2023/09/30 11:08:14;;;;;;;;;;;;;;;28.66;39.41;95077.28;4935264;28;7529;-55
2023/09/30 11:10:50;;;;;;;;;;;;;;;28.70;39.95;95082.53;4958572;28;8776;-55
2023/09/30 11:13:23;;;;;;;;;;;;;;;28.69;39.70;95078.25;4952044;28;9107;-55
2023/09/30 11:16:02;;;;;;;;;;;;;;;28.69;40.47;95073.47;4937181;28;7184;-55
2023/09/30 11:18:31;;;;;;;;;;;;;;;28.67;39.31;95078.78;4954570;28;7245;-55
2023/09/30 11:21:04;;;;;;;;;;;;;;;28.68;39.09;95074.00;4942167;28;7164;-55
2023/09/30 11:23:41;;;;;;;;;;;;;;;28.73;39.51;95071.16;4964203;28;8999;-55
2023/09/30 11:26:32;;;;;;;;;;;;;;;28.76;39.08;95075.69;4986475;28;8654;-55
2023/09/30 11:29:06;;;;;;;;;;;;;;;28.78;39.19;95066.84;4998079;28;9104;-55
2023/09/30 11:31:34;;;;;;;;;;;;;;;28.82;39.16;95057.00;4989847;28;7082;-55
2023/09/30 11:34:03;;;;;;;;;;;;;;;28.85;39.07;95055.97;5028919;28;7369;-55
2023/09/30 11:36:33;;;;;;;;;;;;;;;28.87;38.49;95061.75;5074153;28;8917;-55
2023/09/30 11:39:02;;;;;;;;;;;;;;;28.88;38.11;95066.00;5063587;28;7452;-55
2023/09/30 11:41:39;;;;;;;;;;;;;;;28.87;39.13;95058.22;5055472;28;7214;-55
2023/09/30 11:44:10;;;;;;;;;;;;;;;28.89;38.74;95052.91;5058980;28;7207;-55
2023/09/30 11:47:11;;;;;;;;;;;;;;;28.93;38.84;95056.91;5057423;28;6975;-55
2023/09/30 11:49:53;;;;;;;;;;;;;;;28.91;39.02;95053.16;5017075;28;7241;-55
2023/09/30 11:52:41;;;;;;;;;;;;;;;28.93;39.03;95056.16;5021833;28;9311;-55
2023/09/30 11:55:16;;;;;;;;;;;;;;;28.93;39.01;95056.16;4998710;28;7247;-55
2023/09/30 11:57:44;;;;;;;;;;;;;;;28.94;38.90;95058.41;4996938;28;7272;-55
2023/09/30 12:00:14;;;;;;;;;;;;;;;28.95;38.33;95053.59;5001884;28;7169;-55
2023/09/30 12:02:40;;;;;;;;;;;;;;;28.96;38.71;95055.13;4993726;28;9436;-55
2023/09/30 12:05:11;;;;;;;;;;;;;;;28.96;39.36;95055.88;5007768;28;7088;-55
2023/09/30 12:07:44;;;;;;;;;;;;;;;28.94;39.68;95055.66;5010248;28;7322;-55
2023/09/30 12:10:14;;;;;;;;;;;;;;;28.97;39.00;95062.91;5014755;28;7252;-55
2023/09/30 12:12:55;;;;;;;;;;;;;;;29.00;39.53;95058.34;5025533;28;7626;-55
2023/09/30 12:15:22;;;;;;;;;;;;;;;29.00;39.03;95047.28;5011621;28;9377;-61
2023/09/30 12:17:57;;;;;;;;;;;;;;;28.98;38.83;95038.75;5003802;28;8795;-61
2023/09/30 12:20:56;;;;;;;;;;;;;;;28.97;38.91;95043.53;5001359;28;8869;-61
2023/09/30 12:23:31;;;;;;;;;;;;;;;28.99;39.84;95048.56;4926448;28;9172;-61
2023/09/30 12:25:58;;;;;;;;;;;;;;;29.00;39.25;95036.97;5001595;28;7327;-61
2023/09/30 12:28:26;;;;;;;;;;;;;;;29.01;40.07;95030.13;4993486;28;8896;-61
2023/09/30 12:30:53;;;;;;;;;;;;;;;29.02;39.77;95023.34;4993986;28;9288;-61
2023/09/30 12:33:23;;;;;;;;;;;;;;;29.05;39.83;95027.09;4991420;28;7220;-61
2023/09/30 12:36:14;;;;;;;;;;;;;;;29.06;39.95;95036.88;4996913;28;9108;-61
2023/09/30 12:38:49;;;;;;;;;;;;;;;29.04;38.87;95031.13;4970314;28;7359;-61
2023/09/30 12:41:19;;;;;;;;;;;;;;;29.08;38.83;95035.09;4994201;28;7304;-61
2023/09/30 12:44:20;;;;;;;;;;;;;;;29.08;38.99;95034.34;4998752;28;9275;-61
2023/09/30 12:46:57;;;;;;;;;;;;;;;29.07;39.48;95025.31;4908888;29;8967;-61
2023/09/30 12:49:34;;;;;;;;;;;;;;;29.09;39.79;95028.31;4915351;29;7250;-61
2023/09/30 12:52:10;;;;;;;;;;;;;;;29.15;39.96;95022.69;4918716;29;7166;-61
2023/09/30 12:54:37;;;;;;;;;;;;;;;29.14;39.90;95023.22;4899785;29;7269;-61
2023/09/30 12:57:12;;;;;;;;;;;;;;;29.13;39.61;95024.47;4914194;29;8173;-61
2023/09/30 13:00:12;;;;;;;;;;;;;;;29.18;40.30;95032.03;4938715;28;7081;-61
2023/09/30 13:02:38;;;;;;;;;;;;;;;29.17;39.51;95022.22;4931163;28;8785;-61
2023/09/30 13:05:07;;;;;;;;;;;;;;;29.20;40.55;95029.47;4950475;28;8739;-61
2023/09/30 13:07:35;;;;;;;;;;;;;;;29.17;40.24;95022.22;4952177;28;7394;-61
2023/09/30 13:10:02;;;;;;;;;;;;;;;29.16;40.41;95015.94;4942769;28;8819;-61
2023/09/30 13:12:49;;;;;;;;;;;;;;;29.23;39.42;95020.88;4947464;28;8367;-61
2023/09/30 13:15:27;;;;;;;;;;;;;;;29.21;39.55;95014.38;4946136;28;7061;-61
2023/09/30 13:18:05;;;;;;;;;;;;;;;29.22;39.78;95008.31;4949952;28;7182;-60
2023/09/30 13:20:41;;;;;;;;;;;;;;;29.24;40.76;95016.09;4938764;28;7226;-60
2023/09/30 13:23:24;;;;;;;;;;;;;;;29.21;39.90;95012.34;4971776;28;9118;-56
2023/09/30 13:25:53;;;;;;;;;;;;;;;29.23;40.71;95011.84;4982924;28;7175;-56
2023/09/30 13:28:19;;;;;;;;;;;;;;;29.25;39.99;95023.91;4981899;28;9183;-56
2023/09/30 13:30:54;;;;;;;;;;;;;;;29.25;40.21;95020.38;4965324;28;7182;-56
2023/09/30 13:33:53;;;;;;;;;;;;;;;29.24;39.28;95007.78;4986825;28;7868;-56
2023/09/30 13:36:19;;;;;;;;;;;;;;;29.22;39.86;95018.63;4943901;28;9308;-56
2023/09/30 13:38:56;;;;;;;;;;;;;;;29.24;40.03;95021.63;4972117;28;6991;-56
2023/09/30 13:41:23;;;;;;;;;;;;;;;29.25;40.73;95028.69;4975807;28;9102;-56
2023/09/30 13:44:00;;;;;;;;;;;;;;;29.23;39.50;95020.16;4998145;28;7163;-56
2023/09/30 13:46:45;;;;;;;;;;;;;;;29.25;39.43;95017.59;4984729;28;8759;-56